sensor_id;sensor_type;location;lat;lon;timestamp;P1;durP1;ratioP1;P2;durP2;ratioP2
23826;SDS011;12094;50.822;4.376;2022-10-23T00:01:47;8.52;;;2.22;;
23826;SDS011;12094;50.822;4.376;2022-10-23T00:04:19;8.63;;;2.33;;
23826;SDS011;12094;50.822;4.376;2022-10-23T00:06:48;6.95;;;2.40;;
23826;SDS011;12094;50.822;4.376;2022-10-23T00:09:16;8.27;;;1.98;;
23826;SDS011;12094;50.822;4.376;2022-10-23T00:11:45;5.88;;;1.60;;
23826;SDS011;12094;50.822;4.376;2022-10-23T00:14:14;5.10;;;1.83;;
23826;SDS011;12094;50.822;4.376;2022-10-23T00:16:42;7.65;;;1.73;;
23826;SDS011;12094;50.822;4.376;2022-10-23T00:19:09;8.45;;;1.70;;
23826;SDS011;12094;50.822;4.376;2022-10-23T00:21:36;10.68;;;2.00;;
23826;SDS011;12094;50.822;4.376;2022-10-23T00:24:04;9.18;;;1.77;;
23826;SDS011;12094;50.822;4.376;2022-10-23T00:26:32;6.80;;;1.95;;
23826;SDS011;12094;50.822;4.376;2022-10-23T00:29:00;12.68;;;2.30;;
23826;SDS011;12094;50.822;4.376;2022-10-23T00:31:26;6.70;;;1.83;;
23826;SDS011;12094;50.822;4.376;2022-10-23T00:33:53;8.23;;;2.17;;
23826;SDS011;12094;50.822;4.376;2022-10-23T00:36:20;5.43;;;1.60;;
23826;SDS011;12094;50.822;4.376;2022-10-23T00:38:48;9.13;;;2.25;;
23826;SDS011;12094;50.822;4.376;2022-10-23T00:41:23;13.60;;;1.90;;
23826;SDS011;12094;50.822;4.376;2022-10-23T00:46:25;9.53;;;2.10;;
23826;SDS011;12094;50.822;4.376;2022-10-23T00:48:55;5.57;;;2.00;;
23826;SDS011;12094;50.822;4.376;2022-10-23T00:51:23;7.68;;;1.88;;
23826;SDS011;12094;50.822;4.376;2022-10-23T00:53:53;8.82;;;1.90;;
23826;SDS011;12094;50.822;4.376;2022-10-23T00:56:43;9.55;;;2.15;;
23826;SDS011;12094;50.822;4.376;2022-10-23T00:59:11;5.95;;;2.25;;
23826;SDS011;12094;50.822;4.376;2022-10-23T01:01:38;7.00;;;2.17;;
23826;SDS011;12094;50.822;4.376;2022-10-23T01:04:06;6.75;;;2.25;;
23826;SDS011;12094;50.822;4.376;2022-10-23T01:06:35;7.25;;;2.22;;
23826;SDS011;12094;50.822;4.376;2022-10-23T01:15:01;9.80;;;2.40;;
23826;SDS011;12094;50.822;4.376;2022-10-23T01:18:03;6.43;;;2.40;;
23826;SDS011;12094;50.822;4.376;2022-10-23T01:21:11;4.57;;;1.80;;
23826;SDS011;12094;50.822;4.376;2022-10-23T01:29:33;6.78;;;2.10;;
23826;SDS011;12094;50.822;4.376;2022-10-23T01:32:12;9.15;;;2.30;;
23826;SDS011;12094;50.822;4.376;2022-10-23T01:34:51;6.07;;;2.08;;
23826;SDS011;12094;50.822;4.376;2022-10-23T01:37:29;7.50;;;2.30;;
23826;SDS011;12094;50.822;4.376;2022-10-23T01:40:03;7.88;;;2.00;;
23826;SDS011;12094;50.822;4.376;2022-10-23T01:42:37;12.13;;;2.40;;
23826;SDS011;12094;50.822;4.376;2022-10-23T01:45:54;10.65;;;1.80;;
23826;SDS011;12094;50.822;4.376;2022-10-23T01:48:01;5.85;;;2.20;;
23826;SDS011;12094;50.822;4.376;2022-10-23T01:50:29;11.88;;;2.53;;
23826;SDS011;12094;50.822;4.376;2022-10-23T01:53:01;10.00;;;2.37;;
23826;SDS011;12094;50.822;4.376;2022-10-23T01:55:31;6.05;;;1.80;;
23826;SDS011;12094;50.822;4.376;2022-10-23T01:58:02;14.60;;;2.45;;
23826;SDS011;12094;50.822;4.376;2022-10-23T02:00:40;9.23;;;2.25;;
23826;SDS011;12094;50.822;4.376;2022-10-23T02:03:10;7.82;;;2.17;;
23826;SDS011;12094;50.822;4.376;2022-10-23T02:05:38;9.32;;;2.10;;
23826;SDS011;12094;50.822;4.376;2022-10-23T02:08:06;6.55;;;2.00;;
23826;SDS011;12094;50.822;4.376;2022-10-23T02:10:44;9.20;;;2.20;;
23826;SDS011;12094;50.822;4.376;2022-10-23T02:16:34;4.70;;;2.00;;
23826;SDS011;12094;50.822;4.376;2022-10-23T02:22:05;8.52;;;2.20;;
23826;SDS011;12094;50.822;4.376;2022-10-23T02:24:42;5.40;;;2.05;;
23826;SDS011;12094;50.822;4.376;2022-10-23T02:27:21;6.05;;;2.10;;
23826;SDS011;12094;50.822;4.376;2022-10-23T02:29:56;8.35;;;2.30;;
23826;SDS011;12094;50.822;4.376;2022-10-23T02:32:31;9.48;;;2.22;;
23826;SDS011;12094;50.822;4.376;2022-10-23T02:35:01;5.95;;;2.13;;
23826;SDS011;12094;50.822;4.376;2022-10-23T02:37:30;5.55;;;2.08;;
23826;SDS011;12094;50.822;4.376;2022-10-23T02:40:00;5.47;;;2.20;;
23826;SDS011;12094;50.822;4.376;2022-10-23T02:42:56;5.07;;;2.00;;
23826;SDS011;12094;50.822;4.376;2022-10-23T02:45:40;11.52;;;2.15;;
23826;SDS011;12094;50.822;4.376;2022-10-23T02:51:32;6.68;;;2.30;;
23826;SDS011;12094;50.822;4.376;2022-10-23T02:54:07;7.35;;;2.13;;
23826;SDS011;12094;50.822;4.376;2022-10-23T02:56:50;10.90;;;2.40;;
23826;SDS011;12094;50.822;4.376;2022-10-23T03:02:04;9.73;;;2.30;;
23826;SDS011;12094;50.822;4.376;2022-10-23T03:04:39;7.60;;;1.90;;
23826;SDS011;12094;50.822;4.376;2022-10-23T03:07:12;8.75;;;2.42;;
23826;SDS011;12094;50.822;4.376;2022-10-23T03:09:42;5.88;;;2.28;;
23826;SDS011;12094;50.822;4.376;2022-10-23T03:12:09;7.95;;;2.78;;
23826;SDS011;12094;50.822;4.376;2022-10-23T03:14:37;10.23;;;2.97;;
23826;SDS011;12094;50.822;4.376;2022-10-23T03:17:04;6.35;;;2.33;;
23826;SDS011;12094;50.822;4.376;2022-10-23T03:19:31;8.13;;;2.80;;
23826;SDS011;12094;50.822;4.376;2022-10-23T03:22:01;11.45;;;2.22;;
23826;SDS011;12094;50.822;4.376;2022-10-23T03:24:29;8.68;;;2.65;;
23826;SDS011;12094;50.822;4.376;2022-10-23T03:26:56;11.55;;;3.20;;
23826;SDS011;12094;50.822;4.376;2022-10-23T03:29:29;8.77;;;2.88;;
23826;SDS011;12094;50.822;4.376;2022-10-23T03:31:57;9.23;;;2.70;;
23826;SDS011;12094;50.822;4.376;2022-10-23T03:34:24;8.45;;;2.25;;
23826;SDS011;12094;50.822;4.376;2022-10-23T03:36:55;5.40;;;2.33;;
23826;SDS011;12094;50.822;4.376;2022-10-23T03:39:22;9.35;;;2.25;;
23826;SDS011;12094;50.822;4.376;2022-10-23T03:41:50;9.25;;;2.47;;
23826;SDS011;12094;50.822;4.376;2022-10-23T03:44:19;8.43;;;2.60;;
23826;SDS011;12094;50.822;4.376;2022-10-23T03:46:46;7.82;;;2.70;;
23826;SDS011;12094;50.822;4.376;2022-10-23T03:49:14;6.53;;;2.50;;
23826;SDS011;12094;50.822;4.376;2022-10-23T03:51:42;8.90;;;2.85;;
23826;SDS011;12094;50.822;4.376;2022-10-23T03:54:12;9.20;;;2.42;;
23826;SDS011;12094;50.822;4.376;2022-10-23T03:56:43;7.63;;;2.50;;
23826;SDS011;12094;50.822;4.376;2022-10-23T03:59:10;6.32;;;2.53;;
23826;SDS011;12094;50.822;4.376;2022-10-23T04:01:38;7.75;;;2.78;;
23826;SDS011;12094;50.822;4.376;2022-10-23T04:04:06;8.30;;;2.55;;
23826;SDS011;12094;50.822;4.376;2022-10-23T04:06:34;5.38;;;2.50;;
23826;SDS011;12094;50.822;4.376;2022-10-23T04:09:03;7.22;;;2.83;;
23826;SDS011;12094;50.822;4.376;2022-10-23T04:11:30;9.82;;;3.03;;
23826;SDS011;12094;50.822;4.376;2022-10-23T04:13:58;7.43;;;2.75;;
23826;SDS011;12094;50.822;4.376;2022-10-23T04:16:25;10.35;;;3.03;;
23826;SDS011;12094;50.822;4.376;2022-10-23T04:18:53;13.05;;;3.05;;
23826;SDS011;12094;50.822;4.376;2022-10-23T04:21:21;10.48;;;2.60;;
23826;SDS011;12094;50.822;4.376;2022-10-23T04:23:47;7.75;;;2.60;;
23826;SDS011;12094;50.822;4.376;2022-10-23T04:26:16;5.28;;;2.85;;
23826;SDS011;12094;50.822;4.376;2022-10-23T04:28:43;8.27;;;2.88;;
23826;SDS011;12094;50.822;4.376;2022-10-23T04:31:10;11.20;;;3.13;;
23826;SDS011;12094;50.822;4.376;2022-10-23T04:33:39;9.35;;;2.90;;
23826;SDS011;12094;50.822;4.376;2022-10-23T04:36:07;6.85;;;2.97;;
23826;SDS011;12094;50.822;4.376;2022-10-23T04:38:34;8.15;;;2.88;;
23826;SDS011;12094;50.822;4.376;2022-10-23T04:41:03;11.00;;;3.05;;
23826;SDS011;12094;50.822;4.376;2022-10-23T04:43:30;9.80;;;3.13;;
23826;SDS011;12094;50.822;4.376;2022-10-23T04:45:57;8.23;;;3.00;;
23826;SDS011;12094;50.822;4.376;2022-10-23T04:48:26;10.80;;;2.90;;
23826;SDS011;12094;50.822;4.376;2022-10-23T04:51:19;6.40;;;3.17;;
23826;SDS011;12094;50.822;4.376;2022-10-23T04:53:57;6.70;;;2.65;;
23826;SDS011;12094;50.822;4.376;2022-10-23T04:56:42;8.10;;;2.97;;
23826;SDS011;12094;50.822;4.376;2022-10-23T04:59:18;6.70;;;2.90;;
23826;SDS011;12094;50.822;4.376;2022-10-23T05:01:45;9.45;;;3.22;;
23826;SDS011;12094;50.822;4.376;2022-10-23T05:04:12;12.73;;;3.20;;
23826;SDS011;12094;50.822;4.376;2022-10-23T05:06:58;8.70;;;3.45;;
23826;SDS011;12094;50.822;4.376;2022-10-23T05:09:51;6.68;;;3.33;;
23826;SDS011;12094;50.822;4.376;2022-10-23T05:12:25;13.73;;;3.40;;
23826;SDS011;12094;50.822;4.376;2022-10-23T05:14:54;6.80;;;2.90;;
23826;SDS011;12094;50.822;4.376;2022-10-23T05:17:25;6.18;;;3.47;;
23826;SDS011;12094;50.822;4.376;2022-10-23T05:19:56;7.25;;;3.00;;
23826;SDS011;12094;50.822;4.376;2022-10-23T05:22:25;7.95;;;3.40;;
23826;SDS011;12094;50.822;4.376;2022-10-23T05:24:57;7.07;;;3.15;;
23826;SDS011;12094;50.822;4.376;2022-10-23T05:27:24;6.97;;;3.20;;
23826;SDS011;12094;50.822;4.376;2022-10-23T05:29:53;6.75;;;3.55;;
23826;SDS011;12094;50.822;4.376;2022-10-23T05:32:24;6.00;;;3.53;;
23826;SDS011;12094;50.822;4.376;2022-10-23T05:34:55;6.60;;;3.50;;
23826;SDS011;12094;50.822;4.376;2022-10-23T05:37:28;7.82;;;3.67;;
23826;SDS011;12094;50.822;4.376;2022-10-23T05:40:18;6.88;;;3.47;;
23826;SDS011;12094;50.822;4.376;2022-10-23T05:42:47;10.48;;;3.42;;
23826;SDS011;12094;50.822;4.376;2022-10-23T05:45:18;9.93;;;3.63;;
23826;SDS011;12094;50.822;4.376;2022-10-23T05:48:08;7.30;;;3.15;;
23826;SDS011;12094;50.822;4.376;2022-10-23T05:51:13;4.32;;;2.90;;
23826;SDS011;12094;50.822;4.376;2022-10-23T05:53:54;5.00;;;3.10;;
23826;SDS011;12094;50.822;4.376;2022-10-23T05:56:30;7.03;;;3.47;;
23826;SDS011;12094;50.822;4.376;2022-10-23T05:59:06;7.93;;;3.35;;
23826;SDS011;12094;50.822;4.376;2022-10-23T06:02:03;10.52;;;3.75;;
23826;SDS011;12094;50.822;4.376;2022-10-23T06:04:45;6.93;;;3.58;;
23826;SDS011;12094;50.822;4.376;2022-10-23T06:07:26;5.85;;;3.03;;
23826;SDS011;12094;50.822;4.376;2022-10-23T06:10:05;8.27;;;3.80;;
23826;SDS011;12094;50.822;4.376;2022-10-23T06:12:37;6.13;;;3.13;;
23826;SDS011;12094;50.822;4.376;2022-10-23T06:15:05;10.18;;;3.17;;
23826;SDS011;12094;50.822;4.376;2022-10-23T06:17:53;7.70;;;3.50;;
23826;SDS011;12094;50.822;4.376;2022-10-23T06:20:21;6.63;;;2.78;;
23826;SDS011;12094;50.822;4.376;2022-10-23T06:23:03;7.93;;;3.17;;
23826;SDS011;12094;50.822;4.376;2022-10-23T06:26:02;7.43;;;2.90;;
23826;SDS011;12094;50.822;4.376;2022-10-23T06:28:38;6.28;;;3.08;;
23826;SDS011;12094;50.822;4.376;2022-10-23T06:31:07;7.18;;;2.75;;
23826;SDS011;12094;50.822;4.376;2022-10-23T06:33:35;7.28;;;3.08;;
23826;SDS011;12094;50.822;4.376;2022-10-23T06:36:04;7.82;;;2.70;;
23826;SDS011;12094;50.822;4.376;2022-10-23T06:38:33;10.55;;;3.15;;
23826;SDS011;12094;50.822;4.376;2022-10-23T06:41:10;11.32;;;2.97;;
23826;SDS011;12094;50.822;4.376;2022-10-23T06:43:39;6.25;;;2.80;;
23826;SDS011;12094;50.822;4.376;2022-10-23T06:46:16;6.13;;;3.13;;
23826;SDS011;12094;50.822;4.376;2022-10-23T06:49:17;6.35;;;2.83;;
23826;SDS011;12094;50.822;4.376;2022-10-23T06:51:46;6.82;;;2.90;;
23826;SDS011;12094;50.822;4.376;2022-10-23T06:54:16;10.30;;;2.88;;
23826;SDS011;12094;50.822;4.376;2022-10-23T06:56:50;8.68;;;2.78;;
23826;SDS011;12094;50.822;4.376;2022-10-23T06:59:21;8.43;;;2.63;;
23826;SDS011;12094;50.822;4.376;2022-10-23T07:01:52;6.97;;;2.80;;
23826;SDS011;12094;50.822;4.376;2022-10-23T07:04:19;8.02;;;2.25;;
23826;SDS011;12094;50.822;4.376;2022-10-23T07:06:48;6.90;;;2.97;;
23826;SDS011;12094;50.822;4.376;2022-10-23T07:09:22;9.40;;;2.83;;
23826;SDS011;12094;50.822;4.376;2022-10-23T07:11:54;6.82;;;2.53;;
23826;SDS011;12094;50.822;4.376;2022-10-23T07:14:39;6.80;;;2.50;;
23826;SDS011;12094;50.822;4.376;2022-10-23T07:17:07;6.65;;;2.20;;
23826;SDS011;12094;50.822;4.376;2022-10-23T07:22:14;13.02;;;2.60;;
23826;SDS011;12094;50.822;4.376;2022-10-23T07:30:07;7.40;;;2.47;;
23826;SDS011;12094;50.822;4.376;2022-10-23T07:32:44;7.15;;;2.13;;
23826;SDS011;12094;50.822;4.376;2022-10-23T07:35:41;5.40;;;2.00;;
23826;SDS011;12094;50.822;4.376;2022-10-23T07:38:12;4.03;;;2.03;;
23826;SDS011;12094;50.822;4.376;2022-10-23T07:40:44;10.85;;;2.10;;
23826;SDS011;12094;50.822;4.376;2022-10-23T07:43:16;10.10;;;2.78;;
23826;SDS011;12094;50.822;4.376;2022-10-23T07:45:47;7.18;;;2.50;;
23826;SDS011;12094;50.822;4.376;2022-10-23T07:48:21;12.63;;;2.10;;
23826;SDS011;12094;50.822;4.376;2022-10-23T07:51:12;5.55;;;2.35;;
23826;SDS011;12094;50.822;4.376;2022-10-23T07:53:47;4.93;;;2.00;;
23826;SDS011;12094;50.822;4.376;2022-10-23T07:56:29;4.65;;;2.08;;
23826;SDS011;12094;50.822;4.376;2022-10-23T07:59:19;7.15;;;2.03;;
23826;SDS011;12094;50.822;4.376;2022-10-23T08:01:54;4.25;;;2.00;;
23826;SDS011;12094;50.822;4.376;2022-10-23T08:04:34;5.85;;;2.17;;
23826;SDS011;12094;50.822;4.376;2022-10-23T08:07:12;8.73;;;2.38;;
23826;SDS011;12094;50.822;4.376;2022-10-23T08:09:42;11.75;;;2.75;;
23826;SDS011;12094;50.822;4.376;2022-10-23T08:12:10;6.90;;;2.70;;
23826;SDS011;12094;50.822;4.376;2022-10-23T08:14:37;5.07;;;2.58;;
23826;SDS011;12094;50.822;4.376;2022-10-23T08:17:05;6.95;;;2.55;;
23826;SDS011;12094;50.822;4.376;2022-10-23T08:20:10;5.53;;;1.95;;
23826;SDS011;12094;50.822;4.376;2022-10-23T08:22:41;6.82;;;2.45;;
23826;SDS011;12094;50.822;4.376;2022-10-23T08:25:09;6.60;;;2.25;;
23826;SDS011;12094;50.822;4.376;2022-10-23T08:27:37;5.63;;;2.38;;
23826;SDS011;12094;50.822;4.376;2022-10-23T08:30:04;8.18;;;2.70;;
23826;SDS011;12094;50.822;4.376;2022-10-23T08:32:32;8.82;;;2.40;;
23826;SDS011;12094;50.822;4.376;2022-10-23T08:35:01;7.25;;;2.38;;
23826;SDS011;12094;50.822;4.376;2022-10-23T08:37:30;9.10;;;2.30;;
23826;SDS011;12094;50.822;4.376;2022-10-23T08:39:57;12.32;;;3.10;;
23826;SDS011;12094;50.822;4.376;2022-10-23T08:42:45;11.32;;;2.65;;
23826;SDS011;12094;50.822;4.376;2022-10-23T08:45:23;7.00;;;2.55;;
23826;SDS011;12094;50.822;4.376;2022-10-23T08:48:09;7.55;;;2.80;;
23826;SDS011;12094;50.822;4.376;2022-10-23T08:51:13;10.38;;;3.17;;
23826;SDS011;12094;50.822;4.376;2022-10-23T08:56:27;6.43;;;3.00;;
23826;SDS011;12094;50.822;4.376;2022-10-23T09:01:54;8.55;;;3.25;;
23826;SDS011;12094;50.822;4.376;2022-10-23T09:04:27;6.28;;;2.95;;
23826;SDS011;12094;50.822;4.376;2022-10-23T09:07:05;8.95;;;2.78;;
23826;SDS011;12094;50.822;4.376;2022-10-23T09:12:12;7.45;;;3.30;;
23826;SDS011;12094;50.822;4.376;2022-10-23T09:14:49;13.25;;;2.97;;
23826;SDS011;12094;50.822;4.376;2022-10-23T09:17:31;6.25;;;2.78;;
23826;SDS011;12094;50.822;4.376;2022-10-23T09:22:38;5.25;;;3.40;;
23826;SDS011;12094;50.822;4.376;2022-10-23T09:25:11;20.08;;;3.45;;
23826;SDS011;12094;50.822;4.376;2022-10-23T09:27:47;7.00;;;3.00;;
23826;SDS011;12094;50.822;4.376;2022-10-23T09:32:57;5.75;;;3.08;;
23826;SDS011;12094;50.822;4.376;2022-10-23T09:35:27;6.57;;;2.85;;
23826;SDS011;12094;50.822;4.376;2022-10-23T09:37:57;8.77;;;3.20;;
23826;SDS011;12094;50.822;4.376;2022-10-23T09:40:31;10.20;;;3.15;;
23826;SDS011;12094;50.822;4.376;2022-10-23T09:43:16;10.48;;;3.47;;
23826;SDS011;12094;50.822;4.376;2022-10-23T09:48:38;9.27;;;3.05;;
23826;SDS011;12094;50.822;4.376;2022-10-23T09:51:17;8.90;;;3.75;;
23826;SDS011;12094;50.822;4.376;2022-10-23T09:53:50;7.90;;;3.35;;
23826;SDS011;12094;50.822;4.376;2022-10-23T10:01:48;10.45;;;3.22;;
23826;SDS011;12094;50.822;4.376;2022-10-23T10:05:21;12.80;;;3.08;;
23826;SDS011;12094;50.822;4.376;2022-10-23T10:10:44;6.93;;;2.90;;
23826;SDS011;12094;50.822;4.376;2022-10-23T10:16:47;8.98;;;3.08;;
23826;SDS011;12094;50.822;4.376;2022-10-23T10:30:20;11.52;;;3.33;;
23826;SDS011;12094;50.822;4.376;2022-10-23T10:33:01;7.95;;;2.97;;
23826;SDS011;12094;50.822;4.376;2022-10-23T10:40:07;9.38;;;3.00;;
23826;SDS011;12094;50.822;4.376;2022-10-23T10:45:52;7.57;;;3.03;;
23826;SDS011;12094;50.822;4.376;2022-10-23T10:55:02;10.80;;;3.28;;
23826;SDS011;12094;50.822;4.376;2022-10-23T10:57:46;9.02;;;2.60;;
23826;SDS011;12094;50.822;4.376;2022-10-23T11:00:25;8.38;;;3.33;;
23826;SDS011;12094;50.822;4.376;2022-10-23T11:02:57;7.80;;;3.30;;
23826;SDS011;12094;50.822;4.376;2022-10-23T11:05:44;6.63;;;3.38;;
23826;SDS011;12094;50.822;4.376;2022-10-23T11:11:25;8.60;;;3.17;;
23826;SDS011;12094;50.822;4.376;2022-10-23T11:14:02;8.32;;;3.50;;
23826;SDS011;12094;50.822;4.376;2022-10-23T11:16:38;7.82;;;3.20;;
23826;SDS011;12094;50.822;4.376;2022-10-23T11:25:25;10.20;;;3.58;;
23826;SDS011;12094;50.822;4.376;2022-10-23T11:28:27;10.45;;;3.85;;
23826;SDS011;12094;50.822;4.376;2022-10-23T11:31:19;8.30;;;3.50;;
23826;SDS011;12094;50.822;4.376;2022-10-23T11:34:21;11.68;;;3.83;;
23826;SDS011;12094;50.822;4.376;2022-10-23T11:37:00;9.25;;;3.42;;
23826;SDS011;12094;50.822;4.376;2022-10-23T11:39:30;8.20;;;2.97;;
23826;SDS011;12094;50.822;4.376;2022-10-23T11:47:32;7.68;;;3.15;;
23826;SDS011;12094;50.822;4.376;2022-10-23T11:52:33;9.35;;;2.75;;
23826;SDS011;12094;50.822;4.376;2022-10-23T11:55:23;6.93;;;2.95;;
23826;SDS011;12094;50.822;4.376;2022-10-23T12:00:59;7.47;;;2.85;;
23826;SDS011;12094;50.822;4.376;2022-10-23T12:03:39;8.70;;;3.05;;
23826;SDS011;12094;50.822;4.376;2022-10-23T12:06:25;7.40;;;2.70;;
23826;SDS011;12094;50.822;4.376;2022-10-23T12:08:55;8.10;;;2.75;;
23826;SDS011;12094;50.822;4.376;2022-10-23T12:11:41;6.95;;;3.13;;
23826;SDS011;12094;50.822;4.376;2022-10-23T12:19:53;11.57;;;3.00;;
23826;SDS011;12094;50.822;4.376;2022-10-23T12:22:27;8.23;;;2.88;;
23826;SDS011;12094;50.822;4.376;2022-10-23T12:25:09;7.93;;;2.85;;
23826;SDS011;12094;50.822;4.376;2022-10-23T12:27:48;5.10;;;2.80;;
23826;SDS011;12094;50.822;4.376;2022-10-23T12:39:32;6.78;;;2.53;;
23826;SDS011;12094;50.822;4.376;2022-10-23T12:42:02;7.60;;;3.33;;
23826;SDS011;12094;50.822;4.376;2022-10-23T12:44:31;6.70;;;2.70;;
23826;SDS011;12094;50.822;4.376;2022-10-23T12:47:01;7.43;;;2.28;;
23826;SDS011;12094;50.822;4.376;2022-10-23T12:49:30;6.43;;;2.65;;
23826;SDS011;12094;50.822;4.376;2022-10-23T12:52:00;8.32;;;2.92;;
23826;SDS011;12094;50.822;4.376;2022-10-23T12:54:30;11.95;;;2.63;;
23826;SDS011;12094;50.822;4.376;2022-10-23T12:56:58;8.05;;;2.63;;
23826;SDS011;12094;50.822;4.376;2022-10-23T12:59:26;7.22;;;2.70;;
23826;SDS011;12094;50.822;4.376;2022-10-23T13:02:11;11.73;;;2.58;;
23826;SDS011;12094;50.822;4.376;2022-10-23T13:04:51;8.55;;;2.53;;
23826;SDS011;12094;50.822;4.376;2022-10-23T13:07:19;7.40;;;2.58;;
23826;SDS011;12094;50.822;4.376;2022-10-23T13:09:51;8.20;;;2.73;;
23826;SDS011;12094;50.822;4.376;2022-10-23T13:12:28;3.20;;;1.90;;
23826;SDS011;12094;50.822;4.376;2022-10-23T13:17:35;11.73;;;3.15;;
23826;SDS011;12094;50.822;4.376;2022-10-23T13:22:42;5.43;;;2.20;;
23826;SDS011;12094;50.822;4.376;2022-10-23T13:25:21;7.78;;;2.63;;
23826;SDS011;12094;50.822;4.376;2022-10-23T13:27:50;7.22;;;2.53;;
23826;SDS011;12094;50.822;4.376;2022-10-23T13:30:32;7.97;;;2.63;;
23826;SDS011;12094;50.822;4.376;2022-10-23T13:33:13;9.70;;;2.85;;
23826;SDS011;12094;50.822;4.376;2022-10-23T13:35:59;10.45;;;2.50;;
23826;SDS011;12094;50.822;4.376;2022-10-23T13:38:38;6.63;;;2.80;;
23826;SDS011;12094;50.822;4.376;2022-10-23T13:41:11;5.90;;;2.42;;
23826;SDS011;12094;50.822;4.376;2022-10-23T13:43:43;8.02;;;2.45;;
23826;SDS011;12094;50.822;4.376;2022-10-23T13:46:13;9.05;;;2.63;;
23826;SDS011;12094;50.822;4.376;2022-10-23T13:48:41;7.60;;;2.38;;
23826;SDS011;12094;50.822;4.376;2022-10-23T13:51:10;8.63;;;2.58;;
23826;SDS011;12094;50.822;4.376;2022-10-23T13:53:59;8.88;;;2.50;;
23826;SDS011;12094;50.822;4.376;2022-10-23T13:57:10;10.88;;;3.20;;
23826;SDS011;12094;50.822;4.376;2022-10-23T14:00:26;12.18;;;2.60;;
23826;SDS011;12094;50.822;4.376;2022-10-23T14:03:14;11.52;;;3.08;;
23826;SDS011;12094;50.822;4.376;2022-10-23T14:05:42;5.55;;;2.35;;
23826;SDS011;12094;50.822;4.376;2022-10-23T14:08:12;5.50;;;2.50;;
23826;SDS011;12094;50.822;4.376;2022-10-23T14:10:43;12.98;;;2.80;;
23826;SDS011;12094;50.822;4.376;2022-10-23T14:13:11;7.60;;;2.83;;
23826;SDS011;12094;50.822;4.376;2022-10-23T14:15:39;8.63;;;2.95;;
23826;SDS011;12094;50.822;4.376;2022-10-23T14:18:06;6.30;;;2.80;;
23826;SDS011;12094;50.822;4.376;2022-10-23T14:20:43;7.70;;;2.58;;
23826;SDS011;12094;50.822;4.376;2022-10-23T14:23:16;7.47;;;2.67;;
23826;SDS011;12094;50.822;4.376;2022-10-23T14:25:43;7.57;;;3.25;;
23826;SDS011;12094;50.822;4.376;2022-10-23T14:28:12;10.18;;;2.80;;
23826;SDS011;12094;50.822;4.376;2022-10-23T14:30:40;8.35;;;2.50;;
23826;SDS011;12094;50.822;4.376;2022-10-23T14:33:08;9.68;;;3.00;;
23826;SDS011;12094;50.822;4.376;2022-10-23T14:35:39;12.18;;;3.17;;
23826;SDS011;12094;50.822;4.376;2022-10-23T14:38:21;9.70;;;2.92;;
23826;SDS011;12094;50.822;4.376;2022-10-23T14:40:48;10.95;;;3.20;;
23826;SDS011;12094;50.822;4.376;2022-10-23T14:43:16;10.30;;;2.75;;
23826;SDS011;12094;50.822;4.376;2022-10-23T14:45:44;10.70;;;3.47;;
23826;SDS011;12094;50.822;4.376;2022-10-23T14:48:11;13.02;;;3.33;;
23826;SDS011;12094;50.822;4.376;2022-10-23T14:50:52;8.57;;;2.85;;
23826;SDS011;12094;50.822;4.376;2022-10-23T14:53:23;8.63;;;3.65;;
23826;SDS011;12094;50.822;4.376;2022-10-23T14:55:59;13.55;;;3.70;;
23826;SDS011;12094;50.822;4.376;2022-10-23T14:58:41;9.60;;;3.55;;
23826;SDS011;12094;50.822;4.376;2022-10-23T15:01:10;10.07;;;3.33;;
23826;SDS011;12094;50.822;4.376;2022-10-23T15:03:46;12.18;;;3.72;;
23826;SDS011;12094;50.822;4.376;2022-10-23T15:06:20;7.03;;;3.17;;
23826;SDS011;12094;50.822;4.376;2022-10-23T15:08:51;12.50;;;3.53;;
23826;SDS011;12094;50.822;4.376;2022-10-23T15:11:21;8.77;;;3.38;;
23826;SDS011;12094;50.822;4.376;2022-10-23T15:16:44;11.15;;;4.90;;
23826;SDS011;12094;50.822;4.376;2022-10-23T15:21:56;16.38;;;4.22;;
23826;SDS011;12094;50.822;4.376;2022-10-23T15:24:23;11.00;;;4.40;;
23826;SDS011;12094;50.822;4.376;2022-10-23T15:26:50;11.05;;;3.95;;
23826;SDS011;12094;50.822;4.376;2022-10-23T15:29:18;12.63;;;4.05;;
23826;SDS011;12094;50.822;4.376;2022-10-23T15:31:56;11.90;;;3.35;;
23826;SDS011;12094;50.822;4.376;2022-10-23T15:34:25;10.55;;;3.35;;
23826;SDS011;12094;50.822;4.376;2022-10-23T15:36:54;8.60;;;3.92;;
23826;SDS011;12094;50.822;4.376;2022-10-23T15:39:23;13.38;;;3.85;;
23826;SDS011;12094;50.822;4.376;2022-10-23T15:42:00;9.00;;;3.45;;
23826;SDS011;12094;50.822;4.376;2022-10-23T15:44:29;13.48;;;4.32;;
23826;SDS011;12094;50.822;4.376;2022-10-23T15:46:57;12.68;;;4.55;;
23826;SDS011;12094;50.822;4.376;2022-10-23T15:49:26;11.00;;;3.67;;
23826;SDS011;12094;50.822;4.376;2022-10-23T15:51:57;11.77;;;3.67;;
23826;SDS011;12094;50.822;4.376;2022-10-23T15:54:26;10.68;;;3.90;;
23826;SDS011;12094;50.822;4.376;2022-10-23T15:56:58;8.65;;;3.70;;
23826;SDS011;12094;50.822;4.376;2022-10-23T15:59:27;8.63;;;4.07;;
23826;SDS011;12094;50.822;4.376;2022-10-23T16:01:57;9.55;;;3.60;;
23826;SDS011;12094;50.822;4.376;2022-10-23T16:04:24;11.20;;;3.88;;
23826;SDS011;12094;50.822;4.376;2022-10-23T16:06:52;8.32;;;3.88;;
23826;SDS011;12094;50.822;4.376;2022-10-23T16:09:19;11.40;;;3.88;;
23826;SDS011;12094;50.822;4.376;2022-10-23T16:11:47;11.88;;;4.03;;
23826;SDS011;12094;50.822;4.376;2022-10-23T16:14:15;12.32;;;4.18;;
23826;SDS011;12094;50.822;4.376;2022-10-23T16:16:44;9.55;;;4.20;;
23826;SDS011;12094;50.822;4.376;2022-10-23T16:19:11;8.02;;;3.92;;
23826;SDS011;12094;50.822;4.376;2022-10-23T16:21:40;8.82;;;4.32;;
23826;SDS011;12094;50.822;4.376;2022-10-23T16:24:09;15.55;;;4.85;;
23826;SDS011;12094;50.822;4.376;2022-10-23T16:26:36;16.83;;;4.82;;
23826;SDS011;12094;50.822;4.376;2022-10-23T16:29:05;11.00;;;4.88;;
23826;SDS011;12094;50.822;4.376;2022-10-23T16:31:34;13.98;;;4.55;;
23826;SDS011;12094;50.822;4.376;2022-10-23T16:34:03;12.88;;;5.15;;
23826;SDS011;12094;50.822;4.376;2022-10-23T16:36:31;13.18;;;4.97;;
23826;SDS011;12094;50.822;4.376;2022-10-23T16:39:14;12.65;;;5.00;;
23826;SDS011;12094;50.822;4.376;2022-10-23T16:42:03;13.77;;;4.38;;
23826;SDS011;12094;50.822;4.376;2022-10-23T16:44:59;12.80;;;4.50;;
23826;SDS011;12094;50.822;4.376;2022-10-23T16:47:29;9.55;;;4.20;;
23826;SDS011;12094;50.822;4.376;2022-10-23T16:49:57;10.43;;;4.15;;
23826;SDS011;12094;50.822;4.376;2022-10-23T16:52:26;13.63;;;5.55;;
23826;SDS011;12094;50.822;4.376;2022-10-23T16:54:53;13.10;;;4.55;;
23826;SDS011;12094;50.822;4.376;2022-10-23T16:57:20;8.57;;;4.53;;
23826;SDS011;12094;50.822;4.376;2022-10-23T16:59:48;12.73;;;4.53;;
23826;SDS011;12094;50.822;4.376;2022-10-23T17:02:15;11.90;;;4.78;;
23826;SDS011;12094;50.822;4.376;2022-10-23T17:04:42;12.20;;;4.18;;
23826;SDS011;12094;50.822;4.376;2022-10-23T17:07:09;11.65;;;4.32;;
23826;SDS011;12094;50.822;4.376;2022-10-23T17:09:39;15.70;;;4.82;;
23826;SDS011;12094;50.822;4.376;2022-10-23T17:12:08;12.65;;;4.20;;
23826;SDS011;12094;50.822;4.376;2022-10-23T17:14:34;10.20;;;3.58;;
23826;SDS011;12094;50.822;4.376;2022-10-23T17:17:03;10.45;;;4.07;;
23826;SDS011;12094;50.822;4.376;2022-10-23T17:19:32;10.90;;;3.75;;
23826;SDS011;12094;50.822;4.376;2022-10-23T17:22:10;16.58;;;4.05;;
23826;SDS011;12094;50.822;4.376;2022-10-23T17:24:40;8.93;;;3.75;;
23826;SDS011;12094;50.822;4.376;2022-10-23T17:27:11;10.55;;;3.65;;
23826;SDS011;12094;50.822;4.376;2022-10-23T17:29:46;7.78;;;3.67;;
23826;SDS011;12094;50.822;4.376;2022-10-23T17:32:15;14.00;;;3.70;;
23826;SDS011;12094;50.822;4.376;2022-10-23T17:34:42;14.18;;;3.72;;
23826;SDS011;12094;50.822;4.376;2022-10-23T17:37:12;10.23;;;3.35;;